createdAt,value
2018-12-22T00:01:00.827Z,3.50
2018-12-22T00:03:28.359Z,3.60
2018-12-22T00:05:55.813Z,2.75
2018-12-22T00:08:23.223Z,3.25
2018-12-22T00:10:51.056Z,2.90
2018-12-22T00:13:18.629Z,3.10
2018-12-22T00:15:46.031Z,2.92
2018-12-22T00:18:13.441Z,3.45
2018-12-22T00:20:41.078Z,3.03
2018-12-22T00:23:09.077Z,2.78
2018-12-22T00:25:36.501Z,4.62
2018-12-22T00:28:03.923Z,4.43
2018-12-22T00:30:31.360Z,3.22
2018-12-22T00:32:58.964Z,2.80
2018-12-22T00:35:27.234Z,3.20
2018-12-22T00:37:54.712Z,3.58
2018-12-22T00:40:22.067Z,3.87
2018-12-22T00:42:49.456Z,3.67
2018-12-22T00:45:17.320Z,3.45
2018-12-22T00:47:44.773Z,3.97
2018-12-22T00:50:12.180Z,3.37
2018-12-22T00:52:39.732Z,4.40
2018-12-22T00:55:07.252Z,3.05
2018-12-22T00:57:34.711Z,3.22
2018-12-22T01:00:02.140Z,3.05
2018-12-22T01:02:29.540Z,2.80
2018-12-22T01:04:56.936Z,3.67
2018-12-22T01:07:25.998Z,2.90
2018-12-22T01:09:53.716Z,3.00
2018-12-22T01:12:21.197Z,3.20
2018-12-22T01:14:48.609Z,3.00
2018-12-22T01:17:16.021Z,4.50
2018-12-22T01:19:43.459Z,4.70
2018-12-22T01:22:10.851Z,3.30
2018-12-22T01:24:38.268Z,3.37
2018-12-22T01:27:05.667Z,3.97
2018-12-22T01:29:33.095Z,4.87
2018-12-22T01:32:00.500Z,3.58
2018-12-22T01:34:28.951Z,4.03
2018-12-22T01:36:56.336Z,3.50
2018-12-22T01:39:23.773Z,4.22
2018-12-22T01:41:51.350Z,4.15
2018-12-22T01:44:18.810Z,4.95
2018-12-22T01:46:46.298Z,3.75
2018-12-22T01:49:13.707Z,3.60
2018-12-22T01:51:41.161Z,5.10
2018-12-22T01:54:08.734Z,4.62
2018-12-22T01:56:36.150Z,3.15
2018-12-22T01:59:03.553Z,3.25
2018-12-22T02:01:30.956Z,3.92
2018-12-22T02:03:58.353Z,7.05
2018-12-22T02:06:27.014Z,3.10
2018-12-22T02:08:54.455Z,3.35
2018-12-22T02:11:21.842Z,3.00
2018-12-22T02:13:49.265Z,3.35
2018-12-22T02:16:16.695Z,3.00
2018-12-22T02:18:44.102Z,2.80
2018-12-22T02:21:11.775Z,3.15
2018-12-22T02:23:39.253Z,3.00
2018-12-22T02:26:06.650Z,3.08
2018-12-22T02:28:34.223Z,2.80
2018-12-22T02:31:02.410Z,3.08
2018-12-22T02:33:29.866Z,2.90
2018-12-22T02:35:57.288Z,5.07
2018-12-22T02:38:24.751Z,4.07
2018-12-22T02:40:52.146Z,2.83
2018-12-22T02:43:19.575Z,3.30
2018-12-22T02:45:47.491Z,3.00
2018-12-22T02:48:15.386Z,4.25
2018-12-22T02:50:42.789Z,2.85
2018-12-22T02:53:10.196Z,2.90
2018-12-22T02:55:37.630Z,2.95
2018-12-22T02:58:05.063Z,3.10
2018-12-22T03:00:32.463Z,2.90
2018-12-22T03:02:59.865Z,3.10
2018-12-22T03:05:27.995Z,3.00
2018-12-22T03:07:55.565Z,3.00
2018-12-22T03:10:22.967Z,3.05
2018-12-22T03:12:50.384Z,4.05
2018-12-22T03:15:17.792Z,4.28
2018-12-22T03:17:45.647Z,3.42
2018-12-22T03:20:13.093Z,2.72
2018-12-22T03:22:40.539Z,3.22
2018-12-22T03:25:08.201Z,3.35
2018-12-22T03:27:35.605Z,3.10
2018-12-22T03:30:03.210Z,2.90
2018-12-22T03:32:30.442Z,3.10
2018-12-22T03:34:57.847Z,4.60
2018-12-22T03:37:25.256Z,2.80
2018-12-22T03:39:52.672Z,3.10
2018-12-22T03:42:20.606Z,3.20
2018-12-22T03:44:48.022Z,4.43
2018-12-22T03:47:15.415Z,3.53
2018-12-22T03:49:42.841Z,3.35
2018-12-22T03:52:10.956Z,3.85
2018-12-22T03:54:38.366Z,2.80
2018-12-22T03:57:05.779Z,2.92
2018-12-22T03:59:33.205Z,3.78
2018-12-22T04:02:01.569Z,3.85
2018-12-22T04:04:28.968Z,4.00
2018-12-22T04:06:56.387Z,2.80
2018-12-22T04:09:23.937Z,3.30
2018-12-22T04:11:51.334Z,3.55
2018-12-22T04:14:18.756Z,2.80
2018-12-22T04:16:46.147Z,4.03
2018-12-22T04:19:13.604Z,3.10
2018-12-22T04:21:42.842Z,2.90
2018-12-22T04:24:10.299Z,3.10
2018-12-22T04:26:37.927Z,3.10
2018-12-22T04:29:05.367Z,3.00
2018-12-22T04:31:33.829Z,3.37
2018-12-22T04:34:01.232Z,3.30
2018-12-22T04:36:28.640Z,3.15
2018-12-22T04:38:56.069Z,3.67
2018-12-22T04:41:23.484Z,2.85
2018-12-22T04:43:50.883Z,3.22
2018-12-22T04:46:18.280Z,3.00
2018-12-22T04:48:45.687Z,3.00
2018-12-22T04:51:13.087Z,2.90
2018-12-22T04:53:40.525Z,2.90
2018-12-22T04:56:08.022Z,3.08
2018-12-22T04:58:35.427Z,2.90
2018-12-22T05:01:02.997Z,3.92
2018-12-22T05:03:30.395Z,3.70
2018-12-22T05:05:57.814Z,2.80
2018-12-22T05:08:25.684Z,3.00
2018-12-22T05:10:53.164Z,2.80
2018-12-22T05:13:21.012Z,3.40
2018-12-22T05:15:48.415Z,2.90
2018-12-22T05:18:15.948Z,4.60
2018-12-22T05:20:43.364Z,3.42
2018-12-22T05:23:10.771Z,4.25
2018-12-22T05:25:38.184Z,3.53
2018-12-22T05:28:05.629Z,3.87
2018-12-22T05:30:33.363Z,3.10
2018-12-22T05:33:00.775Z,3.00
2018-12-22T05:35:28.178Z,3.00
2018-12-22T05:37:55.575Z,2.97
2018-12-22T05:40:23.455Z,2.78
2018-12-22T05:42:51.819Z,3.40
2018-12-22T05:45:19.275Z,3.00
2018-12-22T05:47:46.684Z,3.00
2018-12-22T05:50:14.090Z,3.58
2018-12-22T05:52:41.770Z,3.10
2018-12-22T05:55:09.278Z,3.30
2018-12-22T05:57:36.753Z,3.00
2018-12-22T06:00:04.159Z,3.47
2018-12-22T06:02:31.574Z,2.80
2018-12-22T06:04:58.987Z,5.60
2018-12-22T06:07:26.386Z,4.20
2018-12-22T06:09:53.817Z,2.83
2018-12-22T06:12:21.207Z,3.62
2018-12-22T06:14:48.617Z,3.12
2018-12-22T06:17:16.015Z,3.05
2018-12-22T06:19:43.635Z,3.00
2018-12-22T06:22:11.023Z,3.00
2018-12-22T06:24:38.467Z,2.87
2018-12-22T06:27:05.898Z,2.75
2018-12-22T06:29:33.311Z,3.20
2018-12-22T06:32:00.708Z,2.80
2018-12-22T06:34:28.198Z,2.70
2018-12-22T06:36:56.266Z,7.10
2018-12-22T06:39:23.661Z,2.90
2018-12-22T06:41:51.072Z,3.03
2018-12-22T06:44:18.529Z,3.30
2018-12-22T06:46:45.993Z,2.90
2018-12-22T06:49:13.962Z,2.80
2018-12-22T06:51:41.460Z,4.18
2018-12-22T06:54:08.860Z,3.53
2018-12-22T06:56:36.266Z,3.10
2018-12-22T06:59:03.753Z,3.45
2018-12-22T07:01:31.183Z,4.00
2018-12-22T07:03:58.598Z,2.80
2018-12-22T07:06:26.024Z,2.90
2018-12-22T07:08:53.419Z,2.90
2018-12-22T07:11:20.845Z,3.42
2018-12-22T07:13:48.295Z,2.90
2018-12-22T07:16:15.702Z,3.20
2018-12-22T07:18:43.202Z,13.18
2018-12-22T07:21:10.591Z,6.28
2018-12-22T07:23:38.130Z,5.00
2018-12-22T07:26:05.543Z,3.15
2018-12-22T07:28:32.957Z,3.37
2018-12-22T07:31:00.351Z,3.40
2018-12-22T07:33:27.774Z,3.25
2018-12-22T07:35:55.433Z,3.58
2018-12-22T07:38:22.854Z,4.00
2018-12-22T07:40:50.718Z,3.25
2018-12-22T07:43:18.181Z,3.35
2018-12-22T07:45:45.847Z,4.37
2018-12-22T07:48:13.256Z,4.18
2018-12-22T07:50:40.659Z,4.60
2018-12-22T07:53:08.063Z,4.03
2018-12-22T07:55:35.464Z,6.72
2018-12-22T07:58:02.858Z,3.37
2018-12-22T08:00:34.829Z,3.37
2018-12-22T08:02:58.870Z,3.30
2018-12-22T08:05:26.270Z,4.40
2018-12-22T08:07:53.740Z,4.25
2018-12-22T08:10:21.989Z,3.40
2018-12-22T08:12:49.380Z,3.42
2018-12-22T08:15:16.792Z,3.62
2018-12-22T08:17:44.194Z,4.18
2018-12-22T08:20:11.616Z,3.75
2018-12-22T08:22:39.015Z,3.95
2018-12-22T08:25:06.496Z,3.55
2018-12-22T08:27:34.712Z,3.92
2018-12-22T08:30:02.158Z,5.00
2018-12-22T08:32:29.567Z,3.70
2018-12-22T08:34:56.986Z,3.65
2018-12-22T08:37:24.404Z,3.72
2018-12-22T08:39:51.818Z,3.90
2018-12-22T08:42:19.323Z,3.90
2018-12-22T08:44:46.723Z,3.40
2018-12-22T08:47:15.175Z,5.10
2018-12-22T08:49:43.342Z,3.47
2018-12-22T08:52:10.785Z,6.50
2018-12-22T08:54:38.197Z,5.22
2018-12-22T08:57:05.701Z,3.97
2018-12-22T08:59:33.155Z,5.75
2018-12-22T09:02:00.555Z,4.00
2018-12-22T09:04:28.128Z,3.10
2018-12-22T09:06:55.555Z,3.53
2018-12-22T09:09:22.992Z,3.95
2018-12-22T09:11:50.440Z,3.45
2018-12-22T09:19:11.773Z,3.60
2018-12-22T09:21:39.333Z,3.50
2018-12-22T09:24:06.743Z,4.43
2018-12-22T09:26:34.173Z,3.47
2018-12-22T09:29:01.559Z,3.37
2018-12-22T09:31:29.219Z,2.95
2018-12-22T09:33:56.885Z,3.70
2018-12-22T09:36:24.678Z,3.60
2018-12-22T09:38:52.075Z,3.87
2018-12-22T09:41:19.844Z,13.02
2018-12-22T09:43:47.291Z,4.90
2018-12-22T09:46:14.710Z,3.60
2018-12-22T09:48:42.127Z,3.75
2018-12-22T09:51:10.382Z,5.25
2018-12-22T09:53:37.834Z,5.82
2018-12-22T09:56:05.283Z,4.57
2018-12-22T09:58:32.864Z,4.18
2018-12-22T10:01:00.287Z,3.97
2018-12-22T10:03:27.710Z,5.30
2018-12-22T10:05:55.101Z,5.12
2018-12-22T10:08:22.503Z,4.00
2018-12-22T10:10:50.015Z,4.60
2018-12-22T10:13:17.499Z,3.60
2018-12-22T10:18:11.901Z,4.13
2018-12-22T10:23:06.584Z,4.78
2018-12-22T10:25:34.022Z,4.60
2018-12-22T10:28:01.479Z,5.00
2018-12-22T10:30:28.916Z,3.20
2018-12-22T10:32:56.384Z,4.30
2018-12-22T10:35:25.665Z,3.97
2018-12-22T10:37:53.069Z,3.57
2018-12-22T10:40:20.482Z,3.08
2018-12-22T10:42:47.940Z,3.20
2018-12-22T10:45:15.334Z,4.82
2018-12-22T10:47:42.902Z,3.10
2018-12-22T10:50:10.387Z,3.35
2018-12-22T10:52:37.793Z,4.05
2018-12-22T10:57:32.167Z,3.60
2018-12-22T10:59:59.590Z,4.20
2018-12-22T11:02:26.993Z,3.90
2018-12-22T11:04:54.383Z,4.20
2018-12-22T11:07:21.811Z,4.20
2018-12-22T11:12:16.342Z,3.60
2018-12-22T11:14:43.723Z,3.60
2018-12-22T11:17:11.160Z,3.37
2018-12-22T11:19:38.535Z,3.00
2018-12-22T11:22:05.975Z,4.55
2018-12-22T11:24:33.455Z,5.47
2018-12-22T11:27:00.856Z,3.42
2018-12-22T11:29:28.289Z,4.05
2018-12-22T11:31:55.721Z,2.83
2018-12-22T11:34:23.182Z,4.10
2018-12-22T11:36:50.636Z,3.65
2018-12-22T11:39:18.098Z,4.97
2018-12-22T11:41:45.441Z,3.40
2018-12-22T11:44:12.983Z,3.00
2018-12-22T11:46:40.396Z,3.33
2018-12-22T11:49:07.978Z,5.43
2018-12-22T11:51:35.422Z,3.40
2018-12-22T11:54:02.851Z,4.33
2018-12-22T11:56:30.264Z,4.10
2018-12-22T11:58:58.236Z,3.15
2018-12-22T12:01:25.865Z,2.85
2018-12-22T12:03:53.284Z,3.95
2018-12-22T12:13:41.651Z,3.80
2018-12-22T12:16:09.087Z,3.55
2018-12-22T12:18:42.563Z,3.00
2018-12-22T12:21:09.971Z,4.00
2018-12-22T12:28:31.682Z,3.50
2018-12-22T13:17:49.145Z,3.60
2018-12-22T13:20:16.721Z,4.40
2018-12-22T13:22:44.303Z,5.20
2018-12-22T13:25:11.797Z,5.20
2018-12-22T13:27:39.199Z,4.00
2018-12-22T13:32:36.615Z,4.10
2018-12-22T13:35:04.026Z,3.80
2018-12-22T13:39:58.384Z,4.30
2018-12-22T13:57:07.870Z,4.40
2018-12-22T14:04:29.186Z,3.30
2018-12-22T14:06:56.617Z,3.45
2018-12-22T14:09:24.003Z,6.30
2018-12-22T14:11:51.420Z,3.45
2018-12-22T14:19:12.904Z,5.30
2018-12-22T14:24:09.801Z,3.45
2018-12-22T14:26:37.243Z,4.25
2018-12-22T14:29:04.651Z,4.00
2018-12-22T14:31:32.077Z,6.10
2018-12-22T14:34:02.271Z,4.30
2018-12-22T14:36:29.723Z,3.95
2018-12-22T14:38:57.159Z,4.80
2018-12-22T14:41:24.754Z,3.30
2018-12-22T14:43:52.158Z,4.80
2018-12-22T14:46:19.596Z,5.22
2018-12-22T14:51:14.017Z,3.90
2018-12-22T15:25:33.094Z,4.05
2018-12-22T16:31:44.324Z,3.90
2018-12-22T16:48:53.509Z,4.25
2018-12-22T16:51:20.908Z,4.70
2018-12-22T17:43:02.630Z,3.30
2018-12-22T19:03:57.957Z,7.10
2018-12-22T19:40:43.148Z,11.80
2018-12-22T20:52:10.756Z,7.70
2018-12-22T21:04:26.893Z,9.80
2018-12-22T21:14:16.274Z,10.70
2018-12-22T21:21:37.718Z,8.50
2018-12-22T21:26:32.967Z,13.35
2018-12-22T21:31:27.320Z,8.20
2018-12-22T21:36:21.757Z,7.90
2018-12-22T21:43:43.162Z,13.70
2018-12-22T21:46:10.719Z,8.20
2018-12-22T21:55:59.504Z,5.50
2018-12-22T21:58:27.090Z,12.50
2018-12-22T22:00:54.494Z,6.90
2018-12-22T22:03:23.742Z,8.77
2018-12-22T22:05:52.307Z,6.85
2018-12-22T22:08:19.770Z,9.07
2018-12-22T22:10:47.176Z,7.05
2018-12-22T22:13:14.588Z,13.07
2018-12-22T22:15:42.025Z,7.05
2018-12-22T22:18:10.476Z,11.23
2018-12-22T22:20:38.821Z,5.15
2018-12-22T22:23:06.248Z,5.10
2018-12-22T22:25:33.639Z,5.77
2018-12-22T22:28:01.199Z,5.45
2018-12-22T22:30:28.626Z,7.72
2018-12-22T22:32:56.113Z,9.75
2018-12-22T22:35:23.543Z,11.93
2018-12-22T22:37:50.985Z,12.98
2018-12-22T22:40:19.006Z,9.52
2018-12-22T22:42:46.410Z,7.60
2018-12-22T22:47:40.866Z,7.10
2018-12-22T22:57:29.279Z,6.60
2018-12-22T22:59:56.680Z,7.70
2018-12-22T23:02:24.185Z,8.05
2018-12-22T23:04:54.569Z,8.73
2018-12-22T23:07:18.974Z,9.13
2018-12-22T23:09:46.419Z,6.35
2018-12-22T23:12:13.816Z,9.65
2018-12-22T23:14:41.415Z,7.18
2018-12-22T23:17:08.861Z,7.85
2018-12-22T23:19:36.303Z,8.43
2018-12-22T23:22:03.680Z,8.30
2018-12-22T23:24:31.078Z,8.48
2018-12-22T23:26:58.495Z,8.75
2018-12-22T23:29:25.937Z,8.43
2018-12-22T23:31:53.360Z,8.25
2018-12-22T23:34:20.782Z,12.77
2018-12-22T23:36:48.555Z,10.48
2018-12-22T23:39:15.985Z,7.25
2018-12-22T23:41:43.389Z,8.95
2018-12-22T23:44:10.879Z,14.60
2018-12-22T23:46:38.396Z,7.50
2018-12-22T23:49:05.812Z,12.65
2018-12-22T23:51:33.228Z,14.23
2018-12-22T23:54:00.723Z,13.35
2018-12-22T23:56:28.178Z,8.65
2018-12-22T23:58:55.586Z,9.35
